In Rescue
 
Open Full Screen Window  High Contrast Mode
July 23, 2019 1:17 AM EDT
Weather Information
Wind Direction
  ---
Wind Speed
  00 kt (0 mph)
Wind Gust
  00 kt (0 mph)
Altimeter
30.07 in
Visibility
10 SM
Temperature
17° C
63° F
Dewpoint
13° C
55° F
Humidity
77%
Sky Condition
Clear
VFR

METAR KHAI 230517Z AUTO 00000KT 10SM CLR 17/13 A3007 RMK AO2 T01650131

FAA Disclaimer: The data displayed is for advisory purposes only and is not to be used for flight planning or operations.